Time;durP1;ratioP1;P1;durP2;ratioP2;P2;SDS_P1;SDS_P2;PMS_P1;PMS_P2;Temp;Humidity;BMP_temperature;BMP_pressure;BME280_temperature;BME280_humidity;BME280_pressure;Samples;Min_cycle;Max_cycle;Signal;HPM_P1;HPM_P2
2021/12/26 01:37:31;;;;;;;6.97;3.97;;;17.40;40.50;;;;;;5011746;28;20134;-93
2021/12/26 03:11:44;;;;;;;;;;;;;;;;;;;;;
2021/12/26 03:21:34;;;;;;;3.28;2.10;;;16.30;42.10;;;;;;4934670;29;20110;-92
2021/12/26 03:35:28;;;;;;;;;;;;;;;;;;;;;
2021/12/26 03:38:33;;;;;;;;;;;;;;;;;;;;;
2021/12/26 03:41:48;;;;;;;4.10;2.45;;;16.20;42.10;;;;;;4991439;28;20065;-92
2021/12/26 03:59:04;;;;;;;;;;;;;;;;;;;;;
2021/12/26 04:02:19;;;;;;;2.72;1.80;;;16.00;41.80;;;;;;4928422;29;20032;-92
2021/12/26 04:06:07;;;;;;;;;;;;;;;;;;;;;
2021/12/26 04:09:39;;;;;;;;;;;;;;;;;;;;;
2021/12/26 04:26:45;;;;;;;2.85;1.70;;;15.80;41.80;;;;;;4827726;29;20057;-92
2021/12/26 04:37:34;;;;;;;2.08;1.70;;;15.70;41.80;;;;;;4896677;29;20077;-92
2021/12/26 04:40:52;;;;;;;2.92;1.80;;;15.70;41.80;;;;;;4880143;29;20873;-92
2021/12/26 04:43:50;;;;;;;2.70;1.75;;;15.70;41.80;;;;;;4926481;29;20031;-92
2021/12/26 04:50:10;;;;;;;2.65;1.80;;;15.70;41.80;;;;;;5037748;28;20053;-92
2021/12/26 04:53:34;;;;;;;2.72;1.70;;;15.70;41.90;;;;;;5048702;28;20113;-92
2021/12/26 04:56:29;;;;;;;2.90;1.60;;;15.60;41.70;;;;;;5011196;28;20033;-93
2021/12/26 04:59:06;;;;;;;2.63;1.70;;;15.60;41.80;;;;;;5039022;28;20036;-93
2021/12/26 05:01:37;;;;;;;2.92;1.80;;;15.60;41.80;;;;;;5053243;28;20017;-92
2021/12/26 05:07:56;;;;;;;2.40;1.60;;;15.50;41.70;;;;;;5072889;28;20062;-92
2021/12/26 05:10:58;;;;;;;2.30;1.77;;;15.50;41.70;;;;;;5054882;28;20028;-92
2021/12/26 05:14:15;;;;;;;;;;;;;;;;;;;;;
2021/12/26 05:17:32;;;;;;;1.75;1.40;;;15.50;41.70;;;;;;5056707;28;20040;-92
2021/12/26 05:19:59;;;;;;;3.13;1.52;;;15.40;41.80;;;;;;5076334;28;20028;-92
2021/12/26 05:22:30;;;;;;;2.95;1.60;;;15.40;41.80;;;;;;5058495;28;20504;-92
2021/12/26 05:24:56;;;;;;;2.30;1.48;;;15.40;41.70;;;;;;5058684;28;20035;-92
2021/12/26 05:27:22;;;;;;;1.63;1.33;;;15.40;41.90;;;;;;5074603;28;20033;-90
2021/12/26 05:29:53;;;;;;;3.17;1.40;;;15.40;41.70;;;;;;5074726;28;20385;-91
2021/12/26 05:32:19;;;;;;;2.55;1.35;;;15.40;41.40;;;;;;5057922;28;20397;-91
2021/12/26 05:34:44;;;;;;;2.38;1.60;;;15.40;42.40;;;;;;5074692;28;20028;-91
2021/12/26 05:37:10;;;;;;;2.97;1.50;;;15.30;41.30;;;;;;5057599;28;20024;-91
2021/12/26 05:39:36;;;;;;;1.92;1.52;;;15.30;41.40;;;;;;5074682;28;20027;-91
2021/12/26 05:42:02;;;;;;;2.50;1.80;;;15.30;41.30;;;;;;5075586;28;20099;-91
2021/12/26 05:44:30;;;;;;;2.78;1.33;;;15.30;41.30;;;;;;5082802;28;20404;-91
2021/12/26 05:46:58;;;;;;;2.83;1.77;;;15.30;41.40;;;;;;5094753;28;20490;-91
2021/12/26 05:49:24;;;;;;;2.53;1.27;;;15.30;41.30;;;;;;5111318;28;20485;-91
2021/12/26 05:51:50;;;;;;;2.00;1.50;;;15.20;41.40;;;;;;5077718;28;20032;-91
2021/12/26 05:54:18;;;;;;;2.67;1.63;;;15.20;41.40;;;;;;5094583;28;20107;-91
2021/12/26 05:56:44;;;;;;;2.08;1.50;;;15.20;41.40;;;;;;5077425;28;20503;-91
2021/12/26 05:59:33;;;;;;;1.95;1.30;;;15.20;41.40;;;;;;5077861;28;20032;-91
2021/12/26 06:01:59;;;;;;;2.50;1.55;;;15.20;41.30;;;;;;5077497;28;20024;-91
2021/12/26 06:04:24;;;;;;;2.10;1.42;;;15.10;41.30;;;;;;5111318;28;20058;-92
2021/12/26 06:07:10;;;;;;;2.05;1.38;;;15.10;41.30;;;;;;5095576;28;20062;-91
2021/12/26 06:09:36;;;;;;;2.40;1.40;;;15.10;41.40;;;;;;5077750;28;20020;-91
2021/12/26 06:12:02;;;;;;;2.30;1.20;;;15.10;42.20;;;;;;5077208;28;20165;-90
2021/12/26 06:14:27;;;;;;;1.65;1.25;;;15.10;41.00;;;;;;5094278;28;20024;-91
2021/12/26 06:16:55;;;;;;;2.63;1.35;;;15.10;41.10;;;;;;5094073;28;20112;-91
2021/12/26 06:19:20;;;;;;;1.98;1.10;;;15.10;40.70;;;;;;5093948;28;20782;-91
2021/12/26 06:21:46;;;;;;;1.40;1.20;;;15.20;40.70;;;;;;5095019;28;20035;-91
2021/12/26 06:24:14;;;;;;;1.77;1.15;;;15.20;40.70;;;;;;5110860;28;20027;-92
2021/12/26 06:27:00;;;;;;;1.42;1.20;;;15.20;40.80;;;;;;5110923;28;20473;-91
2021/12/26 06:29:28;;;;;;;1.77;1.30;;;15.30;40.70;;;;;;5077230;28;20028;-91
2021/12/26 06:31:54;;;;;;;1.80;1.20;;;15.30;40.70;;;;;;5093590;28;20036;-91
2021/12/26 06:34:19;;;;;;;2.65;1.45;;;15.40;40.80;;;;;;5077149;28;20032;-91
2021/12/26 06:36:45;;;;;;;1.35;1.15;;;15.40;40.50;;;;;;5076840;28;20032;-91
2021/12/26 06:39:11;;;;;;;1.90;1.30;;;15.60;40.50;;;;;;5076821;28;20028;-91
2021/12/26 06:41:38;;;;;;;1.67;1.33;;;15.60;40.30;;;;;;5093500;28;20469;-91
2021/12/26 06:44:06;;;;;;;2.20;1.20;;;15.80;40.20;;;;;;5076461;28;20036;-91
2021/12/26 06:46:33;;;;;;;1.70;1.30;;;15.90;40.10;;;;;;5076852;28;20540;-91
2021/12/26 06:48:59;;;;;;;1.95;1.40;;;16.00;39.90;;;;;;5076654;28;20035;-91
2021/12/26 06:51:25;;;;;;;2.22;1.20;;;16.10;39.70;;;;;;5076775;28;20020;-91
2021/12/26 06:53:50;;;;;;;1.75;1.10;;;16.30;39.60;;;;;;5110626;28;20469;-91
2021/12/26 06:56:16;;;;;;;1.55;1.25;;;16.40;39.40;;;;;;5076090;28;20028;-91
2021/12/26 06:58:44;;;;;;;1.55;1.00;;;16.60;39.20;;;;;;5076582;28;20030;-91
2021/12/26 07:01:10;;;;;;;2.13;1.23;;;16.70;39.00;;;;;;5076137;28;20024;-91
2021/12/26 07:03:36;;;;;;;1.55;1.10;;;17.00;38.90;;;;;;5076590;28;20034;-91
2021/12/26 07:06:02;;;;;;;1.58;1.20;;;17.10;38.60;;;;;;5094170;28;20027;-91
2021/12/26 07:08:28;;;;;;;1.70;1.00;;;17.30;38.40;;;;;;5094416;28;20107;-91
2021/12/26 07:10:54;;;;;;;1.75;1.15;;;17.50;38.20;;;;;;5076322;28;20024;-91
2021/12/26 07:13:20;;;;;;;1.40;1.13;;;17.70;38.00;;;;;;5094216;28;20020;-91
2021/12/26 07:15:45;;;;;;;1.75;1.10;;;17.80;37.80;;;;;;5093008;28;20032;-91
2021/12/26 07:18:11;;;;;;;1.35;0.88;;;18.00;37.60;;;;;;5076047;28;20020;-91
2021/12/26 07:20:37;;;;;;;0.90;0.80;;;18.20;37.30;;;;;;5076019;28;20059;-91
2021/12/26 07:23:04;;;;;;;1.20;1.00;;;18.40;37.10;;;;;;5092752;28;20050;-91
2021/12/26 07:25:32;;;;;;;1.88;1.08;;;18.50;36.80;;;;;;5092670;28;20465;-91
2021/12/26 07:27:58;;;;;;;1.70;1.10;;;18.60;36.50;;;;;;5092680;28;20036;-91
2021/12/26 07:30:27;;;;;;;1.75;1.17;;;18.80;36.30;;;;;;5075527;28;20457;-91
2021/12/26 07:32:53;;;;;;;2.25;1.10;;;18.90;36.10;;;;;;5075983;28;20039;-91
2021/12/26 07:35:18;;;;;;;2.00;0.98;;;19.00;35.80;;;;;;5075525;28;20032;-91
2021/12/26 07:37:46;;;;;;;1.48;0.98;;;19.10;35.70;;;;;;5093106;28;20440;-91
2021/12/26 07:40:12;;;;;;;1.50;0.90;;;19.20;35.50;;;;;;5109662;28;20031;-91
2021/12/26 07:42:37;;;;;;;1.77;1.02;;;19.30;35.40;;;;;;5093701;28;20016;-91
2021/12/26 07:45:03;;;;;;;2.45;1.10;;;19.30;35.10;;;;;;5074884;28;20054;-91
2021/12/26 07:47:29;;;;;;;2.45;1.10;;;19.40;35.00;;;;;;5075315;28;20031;-91
2021/12/26 07:49:55;;;;;;;1.92;1.10;;;19.40;34.90;;;;;;5108326;28;20028;-91
2021/12/26 07:52:28;;;;;;;2.63;1.30;;;19.40;35.90;;;;;;5108894;28;20042;-91
2021/12/26 07:54:54;;;;;;;2.38;1.13;;;19.50;34.80;;;;;;5075325;28;20085;-91
2021/12/26 07:57:20;;;;;;;2.22;1.13;;;19.50;34.90;;;;;;5091646;28;20028;-91
2021/12/26 08:00:05;;;;;;;3.42;1.20;;;19.50;34.90;;;;;;5091766;28;20119;-91
2021/12/26 08:02:31;;;;;;;2.92;1.00;;;19.60;35.10;;;;;;5089042;28;20024;-90
2021/12/26 08:04:57;;;;;;;2.33;0.93;;;19.60;35.00;;;;;;5075202;28;20030;-90
2021/12/26 08:07:23;;;;;;;2.30;1.00;;;19.60;35.20;;;;;;5091743;28;20028;-91
2021/12/26 08:09:48;;;;;;;3.65;1.33;;;19.60;35.00;;;;;;5075239;28;20533;-91
2021/12/26 08:12:18;;;;;;;2.05;1.00;;;19.70;35.10;;;;;;5108903;28;20495;-92
2021/12/26 08:14:43;;;;;;;3.40;1.17;;;19.70;35.20;;;;;;5092134;28;20039;-91
2021/12/26 08:17:10;;;;;;;2.20;1.27;;;19.70;35.30;;;;;;5074884;28;20571;-90
2021/12/26 08:19:36;;;;;;;3.45;1.10;;;19.70;35.30;;;;;;5091801;28;20024;-91
2021/12/26 08:22:04;;;;;;;2.25;1.08;;;19.70;35.40;;;;;;5075070;28;20084;-91
2021/12/26 08:24:29;;;;;;;3.25;1.13;;;19.70;35.50;;;;;;5074803;28;20055;-92
2021/12/26 08:27:14;;;;;;;4.97;1.15;;;19.70;35.40;;;;;;5074965;28;20070;-91
2021/12/26 08:29:47;;;;;;;4.20;1.23;;;19.70;35.50;;;;;;5091783;28;20043;-91
2021/12/26 08:36:33;;;;;;;2.72;1.10;;;19.70;35.70;;;;;;5057917;28;19907;-90
2021/12/26 08:38:59;;;;;;;3.65;0.95;;;19.60;35.70;;;;;;5107490;28;20020;-92
2021/12/26 08:41:24;;;;;;;3.22;0.90;;;19.70;35.90;;;;;;5075092;28;20026;-92
2021/12/26 08:43:50;;;;;;;6.65;1.02;;;19.60;35.90;;;;;;5079987;28;20078;-95
2021/12/26 08:46:16;;;;;;;2.83;0.90;;;19.70;35.90;;;;;;5073489;28;20025;-92
2021/12/26 08:48:42;;;;;;;3.00;0.90;;;19.70;35.90;;;;;;5069854;28;20025;-90
2021/12/26 08:51:07;;;;;;;2.80;1.33;;;19.60;35.90;;;;;;5077192;28;20032;-90
2021/12/26 08:53:36;;;;;;;4.03;1.15;;;19.60;35.90;;;;;;5100188;28;20110;-95
2021/12/26 08:56:04;;;;;;;3.55;1.10;;;19.70;36.00;;;;;;5098421;28;20024;-93
2021/12/26 08:58:29;;;;;;;4.90;1.23;;;19.60;36.00;;;;;;5079289;28;20032;-92
2021/12/26 09:00:55;;;;;;;4.97;1.05;;;19.70;36.10;;;;;;5075301;28;20496;-91
2021/12/26 09:03:21;;;;;;;5.35;1.10;;;19.60;36.10;;;;;;5117047;28;20027;-91
2021/12/26 09:05:46;;;;;;;6.55;1.35;;;19.60;36.20;;;;;;5115835;28;20043;-93
2021/12/26 09:08:12;;;;;;;2.78;1.27;;;19.70;36.20;;;;;;5099102;28;20493;-90
2021/12/26 09:10:40;;;;;;;3.17;1.10;;;19.70;36.30;;;;;;5100471;28;20088;-91
2021/12/26 09:13:06;;;;;;;3.75;0.90;;;19.70;36.30;;;;;;5101016;28;20423;-95
2021/12/26 09:15:32;;;;;;;5.65;1.15;;;19.70;36.30;;;;;;5096585;28;20024;-92
2021/12/26 09:17:59;;;;;;;7.10;1.40;;;19.70;36.30;;;;;;5095790;28;20028;-94
2021/12/26 09:20:26;;;;;;;7.53;1.08;;;19.70;36.30;;;;;;5095791;28;20388;-94
2021/12/26 09:22:52;;;;;;;1.60;0.77;;;19.70;36.30;;;;;;5097277;28;20115;-93
2021/12/26 09:25:18;;;;;;;3.20;1.27;;;19.70;36.30;;;;;;5095861;28;20107;-95
2021/12/26 09:27:43;;;;;;;2.22;1.00;;;19.70;36.40;;;;;;5099295;28;20020;-94
2021/12/26 09:30:11;;;;;;;2.38;0.95;;;19.70;36.30;;;;;;5099729;28;20028;-95
2021/12/26 09:32:45;;;;;;;4.25;1.10;;;19.70;36.40;;;;;;5100277;28;20369;-92
2021/12/26 09:35:12;;;;;;;3.00;0.98;;;19.70;36.40;;;;;;5108369;28;20465;-91
2021/12/26 09:37:38;;;;;;;2.53;1.05;;;19.70;36.40;;;;;;5107909;28;20032;-92
2021/12/26 09:40:05;;;;;;;3.28;0.80;;;19.70;36.40;;;;;;5090628;28;20036;-95
2021/12/26 09:42:31;;;;;;;2.30;1.10;;;19.70;36.40;;;;;;5079608;28;20585;-93
2021/12/26 09:44:58;;;;;;;1.80;0.70;;;19.70;36.40;;;;;;5078066;28;20074;-94
2021/12/26 09:47:24;;;;;;;2.33;0.90;;;19.70;36.40;;;;;;5078022;28;20020;-93
2021/12/26 09:49:50;;;;;;;1.60;0.95;;;19.70;36.40;;;;;;5092730;28;20020;-91
2021/12/26 09:52:16;;;;;;;1.73;0.82;;;19.70;36.50;;;;;;5096100;28;20035;-92
2021/12/26 09:54:43;;;;;;;2.47;0.90;;;19.70;36.50;;;;;;5094759;28;20359;-92
2021/12/26 09:57:29;;;;;;;4.00;1.02;;;19.70;36.70;;;;;;5094542;28;20127;-91
2021/12/26 09:59:55;;;;;;;4.15;1.10;;;19.70;36.80;;;;;;5093671;28;20024;-91
2021/12/26 10:02:21;;;;;;;2.05;1.00;;;19.70;37.00;;;;;;5128590;27;20803;-91
2021/12/26 10:04:50;;;;;;;3.35;0.90;;;19.70;37.00;;;;;;5094338;28;20028;-91
2021/12/26 10:07:19;;;;;;;3.00;0.95;;;19.80;37.10;;;;;;5060875;28;20035;-91
2021/12/26 10:09:48;;;;;;;1.85;1.00;;;19.80;37.30;;;;;;5111335;28;20035;-91
2021/12/26 10:12:16;;;;;;;1.77;0.90;;;19.80;37.20;;;;;;5095710;28;20039;-90
2021/12/26 10:14:47;;;;;;;1.85;0.90;;;19.80;37.20;;;;;;5094359;28;20519;-91
2021/12/26 10:17:19;;;;;;;3.35;0.93;;;19.90;37.20;;;;;;5094283;28;20035;-92
2021/12/26 10:19:48;;;;;;;2.15;0.93;;;19.90;37.20;;;;;;5094371;28;20111;-92
2021/12/26 10:22:17;;;;;;;2.88;0.70;;;20.00;38.30;;;;;;5094068;28;20098;-91
2021/12/26 10:25:12;;;;;;;2.60;0.90;;;20.00;37.20;;;;;;5077521;28;20035;-91
2021/12/26 10:28:24;;;;;;;1.65;0.98;;;20.10;37.20;;;;;;5093997;28;20111;-92
2021/12/26 10:31:49;;;;;;;3.25;0.90;;;20.20;38.30;;;;;;5093465;28;20415;-92
2021/12/26 10:34:31;;;;;;;3.03;0.90;;;20.20;37.20;;;;;;5049192;28;20034;-92
2021/12/26 10:37:07;;;;;;;2.55;1.00;;;20.30;37.10;;;;;;5031921;28;20115;-91
2021/12/26 10:43:16;;;;;;;2.03;0.80;;;20.50;37.00;;;;;;5091477;28;20036;-92
2021/12/26 10:45:42;;;;;;;2.83;0.90;;;20.50;36.80;;;;;;5077055;28;20139;-91
2021/12/26 10:48:09;;;;;;;1.52;0.80;;;20.60;36.80;;;;;;5060242;28;20107;-91
2021/12/26 10:54:48;;;;;;;1.70;0.90;;;20.70;36.40;;;;;;5032357;28;20041;-91
2021/12/26 11:00:34;;;;;;;2.25;1.00;;;20.80;36.30;;;;;;5083587;28;20081;-91
2021/12/26 11:03:09;;;;;;;1.25;0.70;;;20.80;36.20;;;;;;5093362;28;20039;-92
2021/12/26 11:05:38;;;;;;;3.45;0.90;;;20.90;36.10;;;;;;5093204;28;20055;-91
2021/12/26 11:08:10;;;;;;;2.08;1.02;;;20.90;36.20;;;;;;5093016;28;20031;-91
2021/12/26 11:10:47;;;;;;;2.75;1.00;;;20.90;36.10;;;;;;5060785;28;20046;-90
2021/12/26 11:13:45;;;;;;;1.75;0.80;;;21.00;36.20;;;;;;5124277;27;20028;-91
2021/12/26 11:16:16;;;;;;;1.15;0.85;;;21.00;36.20;;;;;;5110873;27;20043;-91
2021/12/26 11:19:17;;;;;;;2.15;0.70;;;21.00;36.30;;;;;;5092999;28;20048;-91
2021/12/26 11:21:44;;;;;;;4.05;0.85;;;21.00;36.40;;;;;;5061686;28;20047;-91
2021/12/26 11:25:02;;;;;;;5.13;0.90;;;21.00;36.50;;;;;;5092783;28;20024;-92
2021/12/26 11:27:52;;;;;;;2.33;1.00;;;21.00;36.60;;;;;;5075761;28;20534;-91
2021/12/26 11:30:42;;;;;;;5.20;0.98;;;21.00;36.80;;;;;;5094006;28;20027;-92
2021/12/26 11:33:40;;;;;;;1.48;0.80;;;21.00;36.90;;;;;;5093435;28;20032;-92
2021/12/26 11:36:32;;;;;;;2.25;0.95;;;21.00;37.00;;;;;;5092693;28;20020;-92
2021/12/26 11:39:06;;;;;;;3.08;0.90;;;21.00;37.10;;;;;;5126783;27;20094;-91
2021/12/26 11:41:32;;;;;;;1.70;1.10;;;20.90;37.10;;;;;;5092382;28;20031;-92
2021/12/26 11:44:28;;;;;;;2.42;1.10;;;20.90;37.10;;;;;;5094766;28;20427;-91
2021/12/26 11:47:18;;;;;;;3.95;1.27;;;20.90;37.20;;;;;;5095589;28;20035;-91
2021/12/26 11:50:02;;;;;;;3.25;1.15;;;20.90;37.30;;;;;;5114013;28;20030;-91
2021/12/26 11:52:49;;;;;;;2.53;1.00;;;20.90;37.30;;;;;;5095358;28;20095;-91
2021/12/26 11:55:55;;;;;;;2.72;1.08;;;20.90;37.30;;;;;;5095605;28;20114;-91
2021/12/26 11:58:54;;;;;;;3.83;1.20;;;20.90;37.20;;;;;;5095731;28;20023;-91
2021/12/26 12:01:40;;;;;;;1.95;1.05;;;20.80;37.10;;;;;;5095586;28;20400;-91
2021/12/26 12:04:17;;;;;;;1.77;1.10;;;20.80;37.10;;;;;;5095780;28;20426;-91
2021/12/26 12:07:04;;;;;;;2.75;1.15;;;20.80;37.00;;;;;;5095018;28;20020;-90
2021/12/26 12:09:36;;;;;;;3.20;1.20;;;20.80;37.00;;;;;;5096289;28;20028;-94
2021/12/26 12:12:08;;;;;;;2.38;1.10;;;20.80;36.90;;;;;;5130188;27;20034;-91
2021/12/26 12:14:45;;;;;;;2.60;1.20;;;20.80;36.70;;;;;;5101042;28;20019;-91
2021/12/26 12:17:17;;;;;;;3.70;1.30;;;20.80;36.60;;;;;;5117659;28;20024;-90
2021/12/26 12:20:20;;;;;;;10.60;1.33;;;20.80;36.70;;;;;;5099372;28;20027;-93
2021/12/26 12:23:04;;;;;;;4.78;1.30;;;20.80;36.80;;;;;;5129637;27;20509;-93
2021/12/26 12:25:56;;;;;;;4.00;1.40;;;20.80;36.90;;;;;;5095238;28;20081;-91
2021/12/26 12:28:26;;;;;;;10.07;1.33;;;20.80;37.00;;;;;;5095583;28;20034;-94
2021/12/26 12:31:10;;;;;;;4.93;1.00;;;20.80;37.10;;;;;;5095095;28;20032;-88
2021/12/26 12:33:38;;;;;;;5.50;1.10;;;20.80;38.20;;;;;;5113462;28;20011;-91
2021/12/26 12:36:24;;;;;;;5.50;1.20;;;20.90;37.40;;;;;;5113132;28;20118;-92
2021/12/26 12:38:51;;;;;;;10.50;1.40;;;20.90;37.40;;;;;;5095096;28;20032;-88
2021/12/26 12:41:28;;;;;;;4.20;1.20;;;20.90;37.50;;;;;;5114945;28;20020;-93
2021/12/26 12:44:06;;;;;;;5.38;1.08;;;20.90;37.50;;;;;;5094717;28;20016;-91
2021/12/26 12:46:51;;;;;;;3.85;1.20;;;20.90;37.60;;;;;;5095037;28;20040;-91
2021/12/26 12:49:17;;;;;;;6.40;1.38;;;21.00;37.70;;;;;;5113032;28;20018;-89
2021/12/26 12:51:48;;;;;;;8.20;1.15;;;21.00;37.70;;;;;;5112991;28;20094;-90
2021/12/26 12:54:30;;;;;;;5.25;1.27;;;21.00;37.70;;;;;;5095066;28;20023;-89
2021/12/26 12:56:56;;;;;;;4.63;1.07;;;21.00;37.80;;;;;;5094945;28;20031;-90
2021/12/26 12:59:27;;;;;;;3.65;1.20;;;21.00;37.80;;;;;;5095097;28;20252;-90
2021/12/26 13:01:59;;;;;;;6.13;1.20;;;21.00;37.80;;;;;;5112827;28;20023;-92
2021/12/26 13:04:38;;;;;;;3.53;1.10;;;21.10;38.00;;;;;;5113138;28;20024;-90
2021/12/26 13:07:05;;;;;;;3.10;1.00;;;21.10;38.00;;;;;;5112849;28;20032;-92
2021/12/26 13:09:33;;;;;;;2.70;1.10;;;21.10;38.00;;;;;;5113111;28;20023;-90
2021/12/26 13:12:02;;;;;;;3.38;1.10;;;21.10;38.10;;;;;;5112903;28;20050;-90
2021/12/26 13:14:41;;;;;;;4.43;0.90;;;21.10;38.10;;;;;;5112838;28;20076;-92
2021/12/26 13:17:11;;;;;;;4.22;1.25;;;21.10;38.10;;;;;;5094803;28;20031;-89
2021/12/26 13:19:37;;;;;;;2.22;1.02;;;21.10;38.10;;;;;;5095259;28;20111;-89
2021/12/26 13:22:04;;;;;;;3.40;1.33;;;21.10;38.20;;;;;;5115155;28;20051;-93
2021/12/26 13:24:35;;;;;;;2.03;1.00;;;21.10;38.20;;;;;;5132118;27;20042;-90
2021/12/26 13:27:01;;;;;;;2.00;1.10;;;21.10;38.30;;;;;;5118690;28;20027;-90
2021/12/26 13:29:27;;;;;;;2.95;1.05;;;21.10;38.30;;;;;;5117603;28;20028;-93
2021/12/26 13:31:53;;;;;;;3.90;1.08;;;21.10;38.40;;;;;;5097716;28;20026;-91
2021/12/26 13:34:19;;;;;;;1.88;1.20;;;21.10;38.40;;;;;;5098078;28;20059;-91
2021/12/26 13:36:45;;;;;;;2.25;0.90;;;21.10;38.40;;;;;;5102491;28;20027;-94
2021/12/26 13:39:22;;;;;;;2.83;0.90;;;21.10;38.50;;;;;;5105335;28;20373;-91
2021/12/26 13:41:50;;;;;;;4.53;1.20;;;21.10;38.50;;;;;;5121798;28;20069;-94
2021/12/26 13:44:18;;;;;;;1.65;0.90;;;21.10;38.60;;;;;;5098744;28;20481;-93
2021/12/26 13:46:44;;;;;;;2.97;1.00;;;21.10;38.60;;;;;;5102046;28;20035;-92
2021/12/26 13:49:12;;;;;;;1.50;1.00;;;21.10;39.70;;;;;;5098777;28;20023;-91
2021/12/26 13:51:53;;;;;;;3.85;1.35;;;21.10;38.70;;;;;;5099302;28;20015;-94
2021/12/26 13:54:23;;;;;;;1.73;1.00;;;21.10;38.70;;;;;;5099906;28;20028;-91
2021/12/26 13:56:53;;;;;;;3.47;1.10;;;21.10;38.80;;;;;;5116416;28;20055;-93
2021/12/26 13:59:42;;;;;;;2.90;1.02;;;21.10;38.80;;;;;;5116469;28;20084;-90
2021/12/26 14:02:12;;;;;;;2.15;1.00;;;21.10;38.90;;;;;;5097671;28;20472;-94
2021/12/26 14:04:48;;;;;;;2.92;0.85;;;21.10;39.00;;;;;;5105369;28;20024;-89
2021/12/26 14:07:20;;;;;;;1.88;1.13;;;21.10;39.00;;;;;;5107468;28;20096;-91
2021/12/26 14:09:48;;;;;;;1.77;1.00;;;21.10;39.20;;;;;;5124509;28;20026;-87
2021/12/26 14:12:42;;;;;;;4.47;1.00;;;21.10;39.00;;;;;;5105449;28;20066;-91
2021/12/26 14:15:21;;;;;;;;;;;21.00;38.80;;;;;;5139652;27;20019;-87
2021/12/26 14:18:04;;;;;;;8.38;1.20;;;21.00;38.50;;;;;;5109887;28;19918;-87
2021/12/26 14:20:47;;;;;;;8.05;1.52;;;21.00;38.40;;;;;;5110568;28;20034;-86
2021/12/26 14:23:29;;;;;;;5.80;1.35;;;21.00;38.10;;;;;;5143513;27;20472;-86
2021/12/26 14:26:17;;;;;;;7.87;1.43;;;20.90;38.00;;;;;;5127934;28;20136;-87
2021/12/26 14:28:48;;;;;;;8.60;1.40;;;20.90;37.90;;;;;;5140944;27;20035;-93
2021/12/26 14:31:47;;;;;;;6.53;1.33;;;21.00;38.00;;;;;;5107590;28;20030;-94
2021/12/26 14:34:15;;;;;;;10.80;1.80;;;20.90;37.70;;;;;;5087476;28;20028;-89
2021/12/26 14:36:43;;;;;;;9.55;1.70;;;20.90;37.80;;;;;;5099777;28;20035;-91
2021/12/26 14:39:09;;;;;;;6.93;1.20;;;20.90;37.80;;;;;;5097353;28;20020;-92
2021/12/26 14:41:44;;;;;;;5.18;1.10;;;20.90;37.80;;;;;;5097398;28;20024;-92
2021/12/26 14:44:22;;;;;;;10.27;1.50;;;21.00;37.90;;;;;;5131371;27;20393;-90
2021/12/26 14:46:50;;;;;;;3.38;1.20;;;21.00;38.00;;;;;;5115179;28;20026;-91
2021/12/26 14:49:18;;;;;;;6.13;1.40;;;20.90;38.00;;;;;;5096880;28;20169;-90
2021/12/26 14:51:58;;;;;;;4.38;1.20;;;21.00;38.10;;;;;;5131289;27;20037;-93
2021/12/26 14:54:35;;;;;;;5.72;1.00;;;21.00;38.20;;;;;;5097001;28;20039;-89
2021/12/26 14:57:02;;;;;;;4.85;1.10;;;21.00;38.20;;;;;;5130859;27;20031;-89
2021/12/26 14:59:33;;;;;;;5.85;1.05;;;21.00;38.30;;;;;;5115093;28;20031;-92
2021/12/26 15:02:17;;;;;;;7.00;1.15;;;21.00;38.30;;;;;;5096516;28;20372;-94
2021/12/26 15:04:45;;;;;;;5.88;1.08;;;21.00;38.30;;;;;;5114897;28;20042;-93
2021/12/26 15:07:17;;;;;;;5.70;1.30;;;21.00;38.50;;;;;;5096686;28;20106;-91
2021/12/26 15:10:05;;;;;;;4.85;1.15;;;21.00;38.40;;;;;;5096677;28;20030;-91
2021/12/26 15:12:50;;;;;;;2.08;1.00;;;21.00;38.40;;;;;;5114914;28;20092;-90
2021/12/26 15:15:22;;;;;;;4.72;1.20;;;21.00;38.50;;;;;;5096319;28;20067;-93
2021/12/26 15:17:56;;;;;;;3.35;1.10;;;21.00;38.50;;;;;;5114725;28;20034;-91
2021/12/26 15:20:36;;;;;;;3.80;1.00;;;21.00;38.60;;;;;;5114497;28;20024;-92
2021/12/26 15:23:24;;;;;;;2.20;1.02;;;21.00;38.60;;;;;;5114500;28;20076;-88
2021/12/26 15:26:08;;;;;;;4.75;1.17;;;21.00;38.70;;;;;;5096240;28;20472;-90
2021/12/26 15:28:43;;;;;;;2.45;1.00;;;21.00;38.70;;;;;;5096275;28;20027;-92
2021/12/26 15:31:29;;;;;;;3.53;1.05;;;21.00;38.70;;;;;;5096557;28;20030;-92
2021/12/26 15:33:57;;;;;;;4.50;0.98;;;21.00;38.80;;;;;;5096180;28;20031;-93
2021/12/26 15:36:30;;;;;;;3.58;1.20;;;21.00;38.80;;;;;;5096125;28;20017;-90
2021/12/26 15:39:05;;;;;;;2.38;0.90;;;21.00;38.90;;;;;;5102848;28;20024;-88
2021/12/26 15:41:36;;;;;;;3.70;1.20;;;21.00;38.90;;;;;;5119055;28;20078;-93
2021/12/26 15:44:04;;;;;;;4.28;1.10;;;21.00;38.90;;;;;;5096570;28;20400;-94
2021/12/26 15:46:32;;;;;;;2.88;1.10;;;21.00;38.90;;;;;;5115257;28;20027;-92
2021/12/26 15:49:00;;;;;;;4.55;1.00;;;21.00;38.90;;;;;;5084040;28;20063;-92
2021/12/26 15:51:27;;;;;;;2.72;0.90;;;21.00;38.80;;;;;;5077721;28;20118;-93
2021/12/26 15:53:54;;;;;;;2.72;1.20;;;20.90;38.80;;;;;;5083065;28;20032;-88
2021/12/26 15:56:20;;;;;;;4.97;1.40;;;20.90;38.80;;;;;;5073518;28;20032;-89
2021/12/26 15:58:46;;;;;;;4.57;1.35;;;20.90;38.80;;;;;;5078879;28;20020;-91
2021/12/26 16:01:15;;;;;;;5.65;1.60;;;20.90;38.70;;;;;;5075271;28;20031;-88
2021/12/26 16:03:41;;;;;;;3.05;1.60;;;20.90;38.70;;;;;;5092951;28;20469;-89
2021/12/26 16:06:06;;;;;;;5.15;1.73;;;20.90;38.80;;;;;;5092847;28;20028;-90
2021/12/26 16:08:33;;;;;;;4.72;1.55;;;20.90;38.80;;;;;;5093044;28;20020;-90
2021/12/26 16:10:59;;;;;;;3.97;1.52;;;20.80;38.70;;;;;;5074998;28;20020;-90
2021/12/26 16:13:25;;;;;;;3.28;1.70;;;20.90;38.80;;;;;;5074878;28;20024;-91
2021/12/26 16:15:51;;;;;;;3.80;1.90;;;20.90;38.80;;;;;;5093005;28;20024;-88
2021/12/26 16:18:20;;;;;;;4.57;1.75;;;20.90;38.80;;;;;;5108892;28;20403;-89
2021/12/26 16:20:49;;;;;;;4.18;1.77;;;20.80;38.70;;;;;;5074843;28;20034;-90
2021/12/26 16:23:15;;;;;;;5.20;2.10;;;20.80;38.70;;;;;;5092922;28;20103;-91
2021/12/26 16:25:41;;;;;;;4.78;1.90;;;20.80;38.70;;;;;;5092620;28;20055;-86
2021/12/26 16:28:07;;;;;;;6.63;2.42;;;20.80;38.70;;;;;;5074405;28;20093;-91
2021/12/26 16:30:35;;;;;;;6.07;2.50;;;20.80;38.70;;;;;;5093051;28;20457;-92
2021/12/26 16:33:01;;;;;;;9.18;3.05;;;20.80;38.60;;;;;;5075047;28;20028;-90
2021/12/26 16:35:26;;;;;;;9.88;3.55;;;20.80;38.40;;;;;;5092913;28;20491;-90
2021/12/26 16:37:52;;;;;;;9.38;3.60;;;20.80;38.30;;;;;;5092863;28;20020;-90
2021/12/26 16:40:19;;;;;;;9.30;3.97;;;20.80;38.20;;;;;;5075161;28;20031;-88
2021/12/26 16:42:45;;;;;;;7.78;3.67;;;20.80;38.00;;;;;;5093001;28;20044;-93
2021/12/26 16:45:11;;;;;;;9.38;4.05;;;20.80;37.90;;;;;;5071149;28;20095;-89
2021/12/26 16:47:37;;;;;;;7.85;3.85;;;20.80;37.80;;;;;;5071613;28;20036;-90
2021/12/26 16:50:09;;;;;;;8.48;4.00;;;20.80;37.70;;;;;;5072444;28;20095;-91
2021/12/26 16:52:34;;;;;;;8.00;3.92;;;20.80;37.60;;;;;;5072437;28;20025;-90
2021/12/26 16:55:00;;;;;;;11.93;4.00;;;20.80;37.50;;;;;;5071538;28;20090;-89
2021/12/26 16:57:26;;;;;;;10.13;4.28;;;20.80;37.60;;;;;;5072522;28;20108;-90
2021/12/26 16:59:52;;;;;;;9.88;4.10;;;20.80;37.40;;;;;;5071334;28;20124;-92
2021/12/26 17:02:18;;;;;;;10.05;3.78;;;20.80;37.40;;;;;;5071473;28;20046;-91
2021/12/26 17:04:44;;;;;;;6.53;3.53;;;20.80;37.40;;;;;;5071404;28;20021;-89
2021/12/26 17:07:10;;;;;;;10.90;4.35;;;20.70;37.30;;;;;;5072390;28;20025;-91
2021/12/26 17:09:36;;;;;;;8.45;4.10;;;20.70;37.30;;;;;;5071623;28;20016;-94
2021/12/26 17:12:02;;;;;;;7.90;3.95;;;20.70;37.20;;;;;;5076446;28;20025;-90
2021/12/26 17:14:28;;;;;;;15.73;4.50;;;20.70;37.20;;;;;;5076527;28;20036;-89
2021/12/26 17:16:53;;;;;;;9.60;4.00;;;20.70;37.20;;;;;;5076355;28;20028;-91
2021/12/26 17:19:19;;;;;;;7.28;4.00;;;20.70;37.20;;;;;;5075071;28;20036;-90
2021/12/26 17:21:45;;;;;;;9.18;3.88;;;20.70;37.10;;;;;;5076279;28;20082;-92
2021/12/26 17:24:11;;;;;;;7.07;3.92;;;20.70;37.10;;;;;;5076339;28;20073;-90
2021/12/26 17:26:37;;;;;;;8.27;4.05;;;20.60;37.00;;;;;;5075098;28;20013;-92
2021/12/26 17:29:07;;;;;;;8.25;3.58;;;20.60;37.00;;;;;;5075013;28;20021;-90
2021/12/26 17:31:33;;;;;;;15.65;4.20;;;20.60;37.00;;;;;;5074768;28;20033;-90
2021/12/26 17:33:58;;;;;;;9.75;4.18;;;20.60;37.00;;;;;;5075977;28;20013;-91
2021/12/26 17:36:25;;;;;;;9.43;4.15;;;20.60;37.10;;;;;;5075662;28;20028;-91
2021/12/26 17:38:51;;;;;;;8.55;3.78;;;20.60;37.00;;;;;;5074897;28;20028;-91
2021/12/26 17:41:17;;;;;;;20.45;9.02;;;20.60;37.00;;;;;;5074595;28;20078;-92
2021/12/26 17:43:43;;;;;;;23.48;11.20;;;20.60;37.00;;;;;;5075426;28;20036;-91
2021/12/26 17:46:10;;;;;;;20.30;10.32;;;20.50;37.10;;;;;;5098268;28;20026;-93
2021/12/26 17:48:37;;;;;;;19.35;10.48;;;20.50;37.20;;;;;;5132468;27;20369;-89
2021/12/26 17:51:05;;;;;;;18.40;9.07;;;20.50;37.30;;;;;;5116343;28;20068;-91
2021/12/26 17:53:32;;;;;;;16.38;8.55;;;20.50;37.40;;;;;;5098196;28;20480;-93